sensor_id;sensor_type;location;lat;lon;timestamp;P1;durP1;ratioP1;P2;durP2;ratioP2
10667;SDS011;5382;42.136;24.796;2022-08-01T00:00:45;5.50;;;5.00;;
10667;SDS011;5382;42.136;24.796;2022-08-01T00:03:12;5.05;;;4.65;;
10667;SDS011;5382;42.136;24.796;2022-08-01T00:05:39;5.25;;;4.85;;
10667;SDS011;5382;42.136;24.796;2022-08-01T00:08:08;5.47;;;5.00;;
10667;SDS011;5382;42.136;24.796;2022-08-01T00:10:35;5.40;;;4.90;;
10667;SDS011;5382;42.136;24.796;2022-08-01T00:13:02;5.15;;;4.60;;
10667;SDS011;5382;42.136;24.796;2022-08-01T00:15:30;5.10;;;4.70;;
10667;SDS011;5382;42.136;24.796;2022-08-01T00:17:57;5.50;;;5.05;;
10667;SDS011;5382;42.136;24.796;2022-08-01T00:20:24;5.32;;;4.80;;
10667;SDS011;5382;42.136;24.796;2022-08-01T00:22:51;5.43;;;5.03;;
10667;SDS011;5382;42.136;24.796;2022-08-01T00:25:18;5.68;;;5.28;;
10667;SDS011;5382;42.136;24.796;2022-08-01T00:27:45;5.50;;;4.75;;
10667;SDS011;5382;42.136;24.796;2022-08-01T00:30:12;5.53;;;5.03;;
10667;SDS011;5382;42.136;24.796;2022-08-01T00:32:40;5.32;;;4.82;;
10667;SDS011;5382;42.136;24.796;2022-08-01T00:35:07;5.45;;;5.03;;
10667;SDS011;5382;42.136;24.796;2022-08-01T00:37:34;5.03;;;4.60;;
10667;SDS011;5382;42.136;24.796;2022-08-01T00:40:01;4.97;;;4.57;;
10667;SDS011;5382;42.136;24.796;2022-08-01T00:42:28;5.10;;;4.70;;
10667;SDS011;5382;42.136;24.796;2022-08-01T00:44:55;5.55;;;5.15;;
10667;SDS011;5382;42.136;24.796;2022-08-01T00:47:23;5.72;;;5.20;;
10667;SDS011;5382;42.136;24.796;2022-08-01T00:49:51;5.80;;;5.30;;
10667;SDS011;5382;42.136;24.796;2022-08-01T00:52:18;5.90;;;4.72;;
10667;SDS011;5382;42.136;24.796;2022-08-01T00:54:45;4.85;;;4.47;;
10667;SDS011;5382;42.136;24.796;2022-08-01T00:57:12;5.63;;;4.63;;
10667;SDS011;5382;42.136;24.796;2022-08-01T00:59:39;4.95;;;4.50;;
10667;SDS011;5382;42.136;24.796;2022-08-01T01:02:07;5.53;;;5.03;;
10667;SDS011;5382;42.136;24.796;2022-08-01T01:04:34;5.00;;;4.60;;
10667;SDS011;5382;42.136;24.796;2022-08-01T01:07:05;5.28;;;4.78;;
10667;SDS011;5382;42.136;24.796;2022-08-01T01:09:38;5.57;;;5.13;;
10667;SDS011;5382;42.136;24.796;2022-08-01T01:12:12;5.30;;;5.00;;
10667;SDS011;5382;42.136;24.796;2022-08-01T01:14:44;4.90;;;4.50;;
10667;SDS011;5382;42.136;24.796;2022-08-01T01:17:17;4.95;;;4.55;;
10667;SDS011;5382;42.136;24.796;2022-08-01T01:19:48;4.93;;;4.53;;
10667;SDS011;5382;42.136;24.796;2022-08-01T01:22:25;5.05;;;4.75;;
10667;SDS011;5382;42.136;24.796;2022-08-01T01:27:57;7.07;;;4.70;;
10667;SDS011;5382;42.136;24.796;2022-08-01T01:30:31;4.70;;;4.20;;
10667;SDS011;5382;42.136;24.796;2022-08-01T01:32:59;7.13;;;4.78;;
10667;SDS011;5382;42.136;24.796;2022-08-01T01:35:31;4.90;;;4.50;;
10667;SDS011;5382;42.136;24.796;2022-08-01T01:38:01;5.05;;;4.65;;
10667;SDS011;5382;42.136;24.796;2022-08-01T01:40:31;6.57;;;4.90;;
10667;SDS011;5382;42.136;24.796;2022-08-01T01:42:59;4.85;;;4.20;;
10667;SDS011;5382;42.136;24.796;2022-08-01T01:45:28;4.70;;;4.30;;
10667;SDS011;5382;42.136;24.796;2022-08-01T01:47:57;5.20;;;4.70;;
10667;SDS011;5382;42.136;24.796;2022-08-01T01:50:27;8.38;;;5.05;;
10667;SDS011;5382;42.136;24.796;2022-08-01T01:52:55;5.75;;;4.45;;
10667;SDS011;5382;42.136;24.796;2022-08-01T01:55:24;4.90;;;4.50;;
10667;SDS011;5382;42.136;24.796;2022-08-01T01:57:52;5.03;;;4.53;;
10667;SDS011;5382;42.136;24.796;2022-08-01T02:00:22;4.90;;;4.28;;
10667;SDS011;5382;42.136;24.796;2022-08-01T02:02:51;4.60;;;4.30;;
10667;SDS011;5382;42.136;24.796;2022-08-01T02:05:20;5.68;;;5.18;;
10667;SDS011;5382;42.136;24.796;2022-08-01T02:07:47;4.88;;;4.40;;
10667;SDS011;5382;42.136;24.796;2022-08-01T02:10:17;5.03;;;4.60;;
10667;SDS011;5382;42.136;24.796;2022-08-01T02:12:45;4.85;;;4.45;;
10667;SDS011;5382;42.136;24.796;2022-08-01T02:15:15;5.00;;;4.60;;
10667;SDS011;5382;42.136;24.796;2022-08-01T02:17:44;5.28;;;4.78;;
10667;SDS011;5382;42.136;24.796;2022-08-01T02:20:16;5.75;;;4.60;;
10667;SDS011;5382;42.136;24.796;2022-08-01T02:22:44;5.00;;;4.60;;
10667;SDS011;5382;42.136;24.796;2022-08-01T02:25:18;4.90;;;3.85;;
10667;SDS011;5382;42.136;24.796;2022-08-01T02:27:50;4.85;;;4.45;;
10667;SDS011;5382;42.136;24.796;2022-08-01T02:30:23;4.60;;;4.15;;
10667;SDS011;5382;42.136;24.796;2022-08-01T02:32:53;4.65;;;4.22;;
10667;SDS011;5382;42.136;24.796;2022-08-01T02:35:29;5.47;;;4.82;;
10667;SDS011;5382;42.136;24.796;2022-08-01T02:37:59;5.00;;;4.22;;
10667;SDS011;5382;42.136;24.796;2022-08-01T02:40:31;4.35;;;4.03;;
10667;SDS011;5382;42.136;24.796;2022-08-01T02:43:00;4.70;;;4.40;;
10667;SDS011;5382;42.136;24.796;2022-08-01T02:45:29;4.07;;;3.67;;
10667;SDS011;5382;42.136;24.796;2022-08-01T02:47:59;6.22;;;3.85;;
10667;SDS011;5382;42.136;24.796;2022-08-01T02:50:33;4.03;;;3.72;;
10667;SDS011;5382;42.136;24.796;2022-08-01T02:53:02;3.80;;;3.50;;
10667;SDS011;5382;42.136;24.796;2022-08-01T02:55:33;4.47;;;3.97;;
10667;SDS011;5382;42.136;24.796;2022-08-01T02:58:01;4.38;;;3.83;;
10667;SDS011;5382;42.136;24.796;2022-08-01T03:00:30;4.40;;;4.00;;
10667;SDS011;5382;42.136;24.796;2022-08-01T03:02:59;4.10;;;3.67;;
10667;SDS011;5382;42.136;24.796;2022-08-01T03:05:27;3.85;;;3.55;;
10667;SDS011;5382;42.136;24.796;2022-08-01T03:07:58;4.55;;;3.70;;
10667;SDS011;5382;42.136;24.796;2022-08-01T03:10:26;5.45;;;3.97;;
10667;SDS011;5382;42.136;24.796;2022-08-01T03:12:55;4.20;;;3.80;;
10667;SDS011;5382;42.136;24.796;2022-08-01T03:15:23;4.38;;;3.67;;
10667;SDS011;5382;42.136;24.796;2022-08-01T03:17:53;4.05;;;3.75;;
10667;SDS011;5382;42.136;24.796;2022-08-01T03:20:39;5.65;;;3.70;;
10667;SDS011;5382;42.136;24.796;2022-08-01T03:23:10;4.20;;;3.70;;
10667;SDS011;5382;42.136;24.796;2022-08-01T03:25:39;3.83;;;3.30;;
10667;SDS011;5382;42.136;24.796;2022-08-01T03:28:08;3.88;;;3.58;;
10667;SDS011;5382;42.136;24.796;2022-08-01T03:30:38;4.57;;;3.35;;
10667;SDS011;5382;42.136;24.796;2022-08-01T03:33:07;4.60;;;3.40;;
10667;SDS011;5382;42.136;24.796;2022-08-01T03:35:36;3.90;;;3.50;;
10667;SDS011;5382;42.136;24.796;2022-08-01T03:38:07;3.38;;;3.08;;
10667;SDS011;5382;42.136;24.796;2022-08-01T03:40:38;4.50;;;3.30;;
10667;SDS011;5382;42.136;24.796;2022-08-01T03:43:07;3.30;;;3.00;;
10667;SDS011;5382;42.136;24.796;2022-08-01T03:45:42;2.97;;;2.60;;
10667;SDS011;5382;42.136;24.796;2022-08-01T03:48:15;4.80;;;2.80;;
10667;SDS011;5382;42.136;24.796;2022-08-01T03:50:45;5.32;;;2.90;;
10667;SDS011;5382;42.136;24.796;2022-08-01T03:53:16;4.22;;;3.22;;
10667;SDS011;5382;42.136;24.796;2022-08-01T03:55:47;3.10;;;2.88;;
10667;SDS011;5382;42.136;24.796;2022-08-01T03:58:15;3.53;;;2.83;;
10667;SDS011;5382;42.136;24.796;2022-08-01T04:00:43;3.00;;;2.70;;
10667;SDS011;5382;42.136;24.796;2022-08-01T04:03:12;4.13;;;2.97;;
10667;SDS011;5382;42.136;24.796;2022-08-01T04:05:40;4.82;;;2.70;;
10667;SDS011;5382;42.136;24.796;2022-08-01T04:08:07;4.80;;;3.10;;
10667;SDS011;5382;42.136;24.796;2022-08-01T04:10:35;3.10;;;2.90;;
10667;SDS011;5382;42.136;24.796;2022-08-01T04:13:02;2.90;;;2.70;;
10667;SDS011;5382;42.136;24.796;2022-08-01T04:15:29;4.05;;;3.03;;
10667;SDS011;5382;42.136;24.796;2022-08-01T04:17:56;2.92;;;2.63;;
10667;SDS011;5382;42.136;24.796;2022-08-01T04:20:23;3.42;;;3.13;;
10667;SDS011;5382;42.136;24.796;2022-08-01T04:22:50;3.42;;;2.97;;
10667;SDS011;5382;42.136;24.796;2022-08-01T04:25:19;4.60;;;2.83;;
10667;SDS011;5382;42.136;24.796;2022-08-01T04:27:52;3.70;;;3.20;;
10667;SDS011;5382;42.136;24.796;2022-08-01T04:30:22;4.25;;;2.72;;
10667;SDS011;5382;42.136;24.796;2022-08-01T04:32:52;3.53;;;2.92;;
10667;SDS011;5382;42.136;24.796;2022-08-01T04:35:22;3.15;;;2.70;;
10667;SDS011;5382;42.136;24.796;2022-08-01T04:37:51;2.70;;;2.50;;
10667;SDS011;5382;42.136;24.796;2022-08-01T04:40:19;2.78;;;2.40;;
10667;SDS011;5382;42.136;24.796;2022-08-01T04:42:48;2.90;;;2.33;;
10667;SDS011;5382;42.136;24.796;2022-08-01T04:45:17;3.30;;;2.70;;
10667;SDS011;5382;42.136;24.796;2022-08-01T04:47:44;3.60;;;2.70;;
10667;SDS011;5382;42.136;24.796;2022-08-01T04:50:12;3.22;;;2.92;;
10667;SDS011;5382;42.136;24.796;2022-08-01T04:52:40;5.78;;;2.70;;
10667;SDS011;5382;42.136;24.796;2022-08-01T04:55:08;2.90;;;2.70;;
10667;SDS011;5382;42.136;24.796;2022-08-01T04:57:36;2.92;;;2.63;;
10667;SDS011;5382;42.136;24.796;2022-08-01T05:00:05;2.63;;;2.42;;
10667;SDS011;5382;42.136;24.796;2022-08-01T05:02:35;3.25;;;2.95;;
10667;SDS011;5382;42.136;24.796;2022-08-01T05:05:02;3.10;;;2.42;;
10667;SDS011;5382;42.136;24.796;2022-08-01T05:07:31;3.47;;;2.65;;
10667;SDS011;5382;42.136;24.796;2022-08-01T05:09:57;3.78;;;2.28;;
10667;SDS011;5382;42.136;24.796;2022-08-01T05:12:26;3.17;;;2.85;;
10667;SDS011;5382;42.136;24.796;2022-08-01T05:14:53;5.88;;;5.28;;
10667;SDS011;5382;42.136;24.796;2022-08-01T05:17:20;6.88;;;4.10;;
10667;SDS011;5382;42.136;24.796;2022-08-01T05:19:48;5.03;;;4.53;;
10667;SDS011;5382;42.136;24.796;2022-08-01T05:22:15;5.75;;;3.22;;
10667;SDS011;5382;42.136;24.796;2022-08-01T05:24:41;6.10;;;5.35;;
10667;SDS011;5382;42.136;24.796;2022-08-01T05:27:08;5.10;;;4.68;;
10667;SDS011;5382;42.136;24.796;2022-08-01T05:29:35;4.20;;;2.78;;
10667;SDS011;5382;42.136;24.796;2022-08-01T05:32:02;3.20;;;2.58;;
10667;SDS011;5382;42.136;24.796;2022-08-01T05:34:29;18.52;;;16.52;;
10667;SDS011;5382;42.136;24.796;2022-08-01T05:36:57;4.05;;;2.92;;
10667;SDS011;5382;42.136;24.796;2022-08-01T05:39:24;12.48;;;9.68;;
10667;SDS011;5382;42.136;24.796;2022-08-01T05:41:51;5.60;;;4.05;;
10667;SDS011;5382;42.136;24.796;2022-08-01T05:44:18;6.00;;;5.10;;
10667;SDS011;5382;42.136;24.796;2022-08-01T05:46:45;3.00;;;2.70;;
10667;SDS011;5382;42.136;24.796;2022-08-01T05:49:12;3.25;;;2.35;;
10667;SDS011;5382;42.136;24.796;2022-08-01T05:51:39;2.85;;;2.00;;
10667;SDS011;5382;42.136;24.796;2022-08-01T05:54:07;2.90;;;2.17;;
10667;SDS011;5382;42.136;24.796;2022-08-01T05:56:34;2.78;;;2.58;;
10667;SDS011;5382;42.136;24.796;2022-08-01T05:59:01;4.45;;;2.20;;
10667;SDS011;5382;42.136;24.796;2022-08-01T06:01:28;4.00;;;2.25;;
10667;SDS011;5382;42.136;24.796;2022-08-01T06:03:54;4.57;;;2.40;;
10667;SDS011;5382;42.136;24.796;2022-08-01T06:06:21;4.38;;;2.55;;
10667;SDS011;5382;42.136;24.796;2022-08-01T06:08:48;6.03;;;2.30;;
10667;SDS011;5382;42.136;24.796;2022-08-01T06:11:17;3.35;;;2.20;;
10667;SDS011;5382;42.136;24.796;2022-08-01T06:13:43;3.42;;;2.15;;
10667;SDS011;5382;42.136;24.796;2022-08-01T06:16:10;2.22;;;2.03;;
10667;SDS011;5382;42.136;24.796;2022-08-01T06:18:37;2.88;;;1.60;;
10667;SDS011;5382;42.136;24.796;2022-08-01T06:21:04;7.32;;;1.70;;
10667;SDS011;5382;42.136;24.796;2022-08-01T06:23:31;4.78;;;1.92;;
10667;SDS011;5382;42.136;24.796;2022-08-01T06:25:57;5.15;;;1.55;;
10667;SDS011;5382;42.136;24.796;2022-08-01T06:28:26;2.58;;;1.48;;
10667;SDS011;5382;42.136;24.796;2022-08-01T06:30:52;2.97;;;1.38;;
10667;SDS011;5382;42.136;24.796;2022-08-01T06:33:19;1.70;;;1.60;;
10667;SDS011;5382;42.136;24.796;2022-08-01T06:35:46;1.88;;;1.58;;
10667;SDS011;5382;42.136;24.796;2022-08-01T06:38:13;2.05;;;1.42;;
10667;SDS011;5382;42.136;24.796;2022-08-01T06:40:40;2.08;;;1.13;;
10667;SDS011;5382;42.136;24.796;2022-08-01T06:43:07;2.75;;;1.60;;
10667;SDS011;5382;42.136;24.796;2022-08-01T06:45:37;3.13;;;1.80;;
10667;SDS011;5382;42.136;24.796;2022-08-01T06:48:04;2.95;;;1.65;;
10667;SDS011;5382;42.136;24.796;2022-08-01T06:50:33;2.22;;;1.58;;
10667;SDS011;5382;42.136;24.796;2022-08-01T06:53:01;1.80;;;1.40;;
10667;SDS011;5382;42.136;24.796;2022-08-01T06:55:28;1.52;;;1.42;;
10667;SDS011;5382;42.136;24.796;2022-08-01T06:57:55;2.05;;;1.48;;
10667;SDS011;5382;42.136;24.796;2022-08-01T07:00:23;2.70;;;1.50;;
10667;SDS011;5382;42.136;24.796;2022-08-01T07:02:53;2.33;;;1.50;;
10667;SDS011;5382;42.136;24.796;2022-08-01T07:05:22;2.55;;;1.60;;
10667;SDS011;5382;42.136;24.796;2022-08-01T07:07:49;2.25;;;1.42;;
10667;SDS011;5382;42.136;24.796;2022-08-01T07:10:16;2.63;;;1.60;;
10667;SDS011;5382;42.136;24.796;2022-08-01T07:12:43;4.40;;;1.58;;
10667;SDS011;5382;42.136;24.796;2022-08-01T07:15:10;4.07;;;1.73;;
10667;SDS011;5382;42.136;24.796;2022-08-01T07:17:38;2.35;;;1.42;;
10667;SDS011;5382;42.136;24.796;2022-08-01T07:20:08;1.80;;;1.58;;
10667;SDS011;5382;42.136;24.796;2022-08-01T07:22:36;3.70;;;2.05;;
10667;SDS011;5382;42.136;24.796;2022-08-01T07:25:04;1.48;;;1.38;;
10667;SDS011;5382;42.136;24.796;2022-08-01T07:27:32;2.85;;;1.83;;
10667;SDS011;5382;42.136;24.796;2022-08-01T07:29:59;2.65;;;1.67;;
10667;SDS011;5382;42.136;24.796;2022-08-01T07:32:25;6.65;;;1.60;;
10667;SDS011;5382;42.136;24.796;2022-08-01T07:34:54;1.85;;;1.67;;
10667;SDS011;5382;42.136;24.796;2022-08-01T07:37:22;2.35;;;1.85;;
10667;SDS011;5382;42.136;24.796;2022-08-01T07:39:49;3.60;;;1.42;;
10667;SDS011;5382;42.136;24.796;2022-08-01T07:42:16;8.80;;;1.58;;
10667;SDS011;5382;42.136;24.796;2022-08-01T07:44:43;1.45;;;1.35;;
10667;SDS011;5382;42.136;24.796;2022-08-01T07:47:10;3.17;;;1.20;;
10667;SDS011;5382;42.136;24.796;2022-08-01T07:49:37;2.33;;;1.50;;
10667;SDS011;5382;42.136;24.796;2022-08-01T07:52:04;6.97;;;1.58;;
10667;SDS011;5382;42.136;24.796;2022-08-01T07:54:32;1.40;;;1.30;;
10667;SDS011;5382;42.136;24.796;2022-08-01T07:57:00;2.83;;;1.80;;
10667;SDS011;5382;42.136;24.796;2022-08-01T07:59:27;1.55;;;1.38;;
10667;SDS011;5382;42.136;24.796;2022-08-01T08:01:53;3.03;;;1.60;;
10667;SDS011;5382;42.136;24.796;2022-08-01T08:04:20;3.78;;;1.33;;
10667;SDS011;5382;42.136;24.796;2022-08-01T08:06:47;1.83;;;1.40;;
10667;SDS011;5382;42.136;24.796;2022-08-01T08:09:14;1.27;;;1.02;;
10667;SDS011;5382;42.136;24.796;2022-08-01T08:11:43;3.08;;;1.48;;
10667;SDS011;5382;42.136;24.796;2022-08-01T08:14:11;2.38;;;1.38;;
10667;SDS011;5382;42.136;24.796;2022-08-01T08:16:38;3.25;;;1.40;;
10667;SDS011;5382;42.136;24.796;2022-08-01T08:19:05;3.20;;;1.27;;
10667;SDS011;5382;42.136;24.796;2022-08-01T08:21:32;2.88;;;1.67;;
10667;SDS011;5382;42.136;24.796;2022-08-01T08:23:58;4.78;;;1.25;;
10667;SDS011;5382;42.136;24.796;2022-08-01T08:26:44;1.77;;;1.52;;
10667;SDS011;5382;42.136;24.796;2022-08-01T08:29:11;1.60;;;1.40;;
10667;SDS011;5382;42.136;24.796;2022-08-01T08:31:38;1.75;;;1.30;;
10667;SDS011;5382;42.136;24.796;2022-08-01T08:34:05;1.92;;;1.15;;
10667;SDS011;5382;42.136;24.796;2022-08-01T08:36:32;4.70;;;1.52;;
10667;SDS011;5382;42.136;24.796;2022-08-01T08:38:59;2.83;;;1.38;;
10667;SDS011;5382;42.136;24.796;2022-08-01T08:41:27;2.25;;;1.30;;
10667;SDS011;5382;42.136;24.796;2022-08-01T08:43:56;2.28;;;1.50;;
10667;SDS011;5382;42.136;24.796;2022-08-01T08:46:24;1.83;;;1.35;;
10667;SDS011;5382;42.136;24.796;2022-08-01T08:48:53;1.73;;;1.30;;
10667;SDS011;5382;42.136;24.796;2022-08-01T08:51:20;3.85;;;1.50;;
10667;SDS011;5382;42.136;24.796;2022-08-01T08:53:49;2.83;;;1.38;;
10667;SDS011;5382;42.136;24.796;2022-08-01T08:56:19;1.63;;;1.50;;
10667;SDS011;5382;42.136;24.796;2022-08-01T08:58:47;1.45;;;1.15;;
10667;SDS011;5382;42.136;24.796;2022-08-01T09:01:16;3.25;;;1.25;;
10667;SDS011;5382;42.136;24.796;2022-08-01T09:03:44;6.13;;;1.48;;
10667;SDS011;5382;42.136;24.796;2022-08-01T09:06:11;5.07;;;1.60;;
10667;SDS011;5382;42.136;24.796;2022-08-01T09:08:37;2.45;;;1.20;;
10667;SDS011;5382;42.136;24.796;2022-08-01T09:11:04;2.35;;;1.10;;
10667;SDS011;5382;42.136;24.796;2022-08-01T09:13:31;6.72;;;1.63;;
10667;SDS011;5382;42.136;24.796;2022-08-01T09:15:58;3.55;;;1.75;;
10667;SDS011;5382;42.136;24.796;2022-08-01T09:18:27;1.50;;;1.40;;
10667;SDS011;5382;42.136;24.796;2022-08-01T09:23:40;4.00;;;1.30;;
10667;SDS011;5382;42.136;24.796;2022-08-01T09:26:10;1.50;;;1.00;;
10667;SDS011;5382;42.136;24.796;2022-08-01T09:28:38;1.85;;;1.38;;
10667;SDS011;5382;42.136;24.796;2022-08-01T09:31:06;1.95;;;1.52;;
10667;SDS011;5382;42.136;24.796;2022-08-01T09:33:48;3.70;;;1.30;;
10667;SDS011;5382;42.136;24.796;2022-08-01T09:36:17;1.33;;;1.20;;
10667;SDS011;5382;42.136;24.796;2022-08-01T09:38:44;2.45;;;1.13;;
10667;SDS011;5382;42.136;24.796;2022-08-01T09:41:11;2.55;;;1.23;;
10667;SDS011;5382;42.136;24.796;2022-08-01T09:43:38;1.60;;;1.25;;
10667;SDS011;5382;42.136;24.796;2022-08-01T09:46:07;2.78;;;1.00;;
10667;SDS011;5382;42.136;24.796;2022-08-01T09:48:36;1.25;;;1.00;;
10667;SDS011;5382;42.136;24.796;2022-08-01T09:51:06;1.33;;;1.10;;
10667;SDS011;5382;42.136;24.796;2022-08-01T09:53:43;2.55;;;1.38;;
10667;SDS011;5382;42.136;24.796;2022-08-01T09:56:12;1.75;;;1.30;;
10667;SDS011;5382;42.136;24.796;2022-08-01T09:58:52;2.35;;;1.30;;
10667;SDS011;5382;42.136;24.796;2022-08-01T10:01:21;2.80;;;1.38;;
10667;SDS011;5382;42.136;24.796;2022-08-01T10:04:03;2.47;;;1.20;;
10667;SDS011;5382;42.136;24.796;2022-08-01T10:06:33;1.20;;;1.10;;
10667;SDS011;5382;42.136;24.796;2022-08-01T10:09:00;3.65;;;1.15;;
10667;SDS011;5382;42.136;24.796;2022-08-01T10:11:28;0.90;;;0.80;;
10667;SDS011;5382;42.136;24.796;2022-08-01T10:13:56;2.15;;;1.10;;
10667;SDS011;5382;42.136;24.796;2022-08-01T10:16:25;2.42;;;1.20;;
10667;SDS011;5382;42.136;24.796;2022-08-01T10:18:54;1.75;;;1.33;;
10667;SDS011;5382;42.136;24.796;2022-08-01T10:21:23;3.35;;;1.13;;
10667;SDS011;5382;42.136;24.796;2022-08-01T10:23:53;3.13;;;1.20;;
10667;SDS011;5382;42.136;24.796;2022-08-01T10:26:21;1.85;;;0.90;;
10667;SDS011;5382;42.136;24.796;2022-08-01T10:28:51;1.17;;;1.05;;
10667;SDS011;5382;42.136;24.796;2022-08-01T10:31:20;1.65;;;1.17;;
10667;SDS011;5382;42.136;24.796;2022-08-01T10:33:48;1.63;;;1.27;;
10667;SDS011;5382;42.136;24.796;2022-08-01T10:36:17;2.25;;;1.13;;
10667;SDS011;5382;42.136;24.796;2022-08-01T10:38:45;2.13;;;1.10;;
10667;SDS011;5382;42.136;24.796;2022-08-01T10:41:14;1.58;;;1.27;;
10667;SDS011;5382;42.136;24.796;2022-08-01T10:43:42;4.95;;;1.10;;
10667;SDS011;5382;42.136;24.796;2022-08-01T10:46:09;2.22;;;1.20;;
10667;SDS011;5382;42.136;24.796;2022-08-01T10:48:39;4.20;;;1.20;;
10667;SDS011;5382;42.136;24.796;2022-08-01T10:51:11;1.88;;;1.17;;
10667;SDS011;5382;42.136;24.796;2022-08-01T10:53:45;0.90;;;0.90;;
10667;SDS011;5382;42.136;24.796;2022-08-01T10:56:14;1.52;;;1.33;;
10667;SDS011;5382;42.136;24.796;2022-08-01T10:58:42;2.63;;;1.70;;
10667;SDS011;5382;42.136;24.796;2022-08-01T11:01:14;2.03;;;1.20;;
10667;SDS011;5382;42.136;24.796;2022-08-01T11:03:43;3.40;;;1.45;;
10667;SDS011;5382;42.136;24.796;2022-08-01T11:06:15;2.55;;;1.40;;
10667;SDS011;5382;42.136;24.796;2022-08-01T11:08:44;3.60;;;1.30;;
10667;SDS011;5382;42.136;24.796;2022-08-01T11:11:19;1.13;;;1.02;;
10667;SDS011;5382;42.136;24.796;2022-08-01T11:14:00;1.50;;;1.40;;
10667;SDS011;5382;42.136;24.796;2022-08-01T11:16:32;1.38;;;1.27;;
10667;SDS011;5382;42.136;24.796;2022-08-01T11:19:00;1.52;;;1.42;;
10667;SDS011;5382;42.136;24.796;2022-08-01T11:27:23;3.20;;;2.90;;
10667;SDS011;5382;42.136;24.796;2022-08-01T11:32:55;6.10;;;2.30;;
10667;SDS011;5382;42.136;24.796;2022-08-01T11:35:23;3.30;;;3.00;;
10667;SDS011;5382;42.136;24.796;2022-08-01T11:37:52;3.08;;;2.65;;
10667;SDS011;5382;42.136;24.796;2022-08-01T11:40:21;3.67;;;2.13;;
10667;SDS011;5382;42.136;24.796;2022-08-01T11:45:47;2.60;;;1.50;;
10667;SDS011;5382;42.136;24.796;2022-08-01T11:48:18;2.17;;;1.15;;
10667;SDS011;5382;42.136;24.796;2022-08-01T11:50:46;2.00;;;1.30;;
10667;SDS011;5382;42.136;24.796;2022-08-01T11:53:13;1.48;;;1.10;;
10667;SDS011;5382;42.136;24.796;2022-08-01T11:55:43;1.20;;;1.10;;
10667;SDS011;5382;42.136;24.796;2022-08-01T11:58:15;3.22;;;1.45;;
10667;SDS011;5382;42.136;24.796;2022-08-01T12:00:49;3.25;;;1.40;;
10667;SDS011;5382;42.136;24.796;2022-08-01T12:03:16;1.55;;;1.30;;
10667;SDS011;5382;42.136;24.796;2022-08-01T12:05:49;1.80;;;1.70;;
10667;SDS011;5382;42.136;24.796;2022-08-01T12:08:23;1.80;;;1.10;;
10667;SDS011;5382;42.136;24.796;2022-08-01T12:10:52;1.90;;;1.02;;
10667;SDS011;5382;42.136;24.796;2022-08-01T12:13:21;2.47;;;1.58;;
10667;SDS011;5382;42.136;24.796;2022-08-01T12:15:48;2.22;;;1.23;;
10667;SDS011;5382;42.136;24.796;2022-08-01T12:18:16;2.97;;;1.55;;
10667;SDS011;5382;42.136;24.796;2022-08-01T12:20:44;1.85;;;1.10;;
10667;SDS011;5382;42.136;24.796;2022-08-01T12:23:12;1.52;;;1.02;;
10667;SDS011;5382;42.136;24.796;2022-08-01T12:25:40;3.45;;;1.27;;
10667;SDS011;5382;42.136;24.796;2022-08-01T12:28:10;2.22;;;1.23;;
10667;SDS011;5382;42.136;24.796;2022-08-01T12:30:40;1.30;;;1.20;;
10667;SDS011;5382;42.136;24.796;2022-08-01T12:33:08;1.80;;;1.45;;
10667;SDS011;5382;42.136;24.796;2022-08-01T12:35:37;2.30;;;1.17;;
10667;SDS011;5382;42.136;24.796;2022-08-01T12:38:12;2.13;;;1.30;;
10667;SDS011;5382;42.136;24.796;2022-08-01T12:40:42;3.25;;;1.40;;
10667;SDS011;5382;42.136;24.796;2022-08-01T12:43:09;1.42;;;1.10;;
10667;SDS011;5382;42.136;24.796;2022-08-01T12:45:44;1.52;;;1.20;;
10667;SDS011;5382;42.136;24.796;2022-08-01T12:48:13;2.03;;;1.20;;
10667;SDS011;5382;42.136;24.796;2022-08-01T12:50:42;2.42;;;1.10;;
10667;SDS011;5382;42.136;24.796;2022-08-01T12:53:10;1.23;;;1.13;;
10667;SDS011;5382;42.136;24.796;2022-08-01T12:55:43;2.80;;;1.20;;
10667;SDS011;5382;42.136;24.796;2022-08-01T12:58:11;1.23;;;1.13;;
10667;SDS011;5382;42.136;24.796;2022-08-01T13:00:40;1.58;;;1.20;;
10667;SDS011;5382;42.136;24.796;2022-08-01T13:03:11;1.98;;;1.10;;
10667;SDS011;5382;42.136;24.796;2022-08-01T13:05:42;3.30;;;1.10;;
10667;SDS011;5382;42.136;24.796;2022-08-01T13:08:10;2.83;;;1.40;;
10667;SDS011;5382;42.136;24.796;2022-08-01T13:10:38;2.55;;;1.70;;
10667;SDS011;5382;42.136;24.796;2022-08-01T13:13:06;3.30;;;1.10;;
10667;SDS011;5382;42.136;24.796;2022-08-01T13:15:34;2.75;;;1.30;;
10667;SDS011;5382;42.136;24.796;2022-08-01T13:23:37;2.42;;;1.02;;
10667;SDS011;5382;42.136;24.796;2022-08-01T13:26:03;1.70;;;1.10;;
10667;SDS011;5382;42.136;24.796;2022-08-01T13:28:31;1.77;;;1.20;;
10667;SDS011;5382;42.136;24.796;2022-08-01T13:30:59;1.33;;;1.23;;
10667;SDS011;5382;42.136;24.796;2022-08-01T13:33:41;1.45;;;1.35;;
10667;SDS011;5382;42.136;24.796;2022-08-01T13:36:09;2.10;;;1.33;;
10667;SDS011;5382;42.136;24.796;2022-08-01T13:38:36;1.45;;;1.10;;
10667;SDS011;5382;42.136;24.796;2022-08-01T13:41:21;3.22;;;1.30;;
10667;SDS011;5382;42.136;24.796;2022-08-01T13:43:48;1.20;;;1.10;;
10667;SDS011;5382;42.136;24.796;2022-08-01T13:46:17;2.15;;;1.10;;
10667;SDS011;5382;42.136;24.796;2022-08-01T13:48:45;3.78;;;1.30;;
10667;SDS011;5382;42.136;24.796;2022-08-01T13:51:12;2.35;;;1.30;;
10667;SDS011;5382;42.136;24.796;2022-08-01T13:53:39;1.77;;;1.30;;
10667;SDS011;5382;42.136;24.796;2022-08-01T13:56:05;4.18;;;1.20;;
10667;SDS011;5382;42.136;24.796;2022-08-01T13:58:32;1.15;;;1.10;;
10667;SDS011;5382;42.136;24.796;2022-08-01T14:00:59;1.10;;;1.00;;
10667;SDS011;5382;42.136;24.796;2022-08-01T14:03:26;1.20;;;1.10;;
10667;SDS011;5382;42.136;24.796;2022-08-01T14:05:54;3.08;;;1.30;;
10667;SDS011;5382;42.136;24.796;2022-08-01T14:08:22;2.17;;;1.00;;
10667;SDS011;5382;42.136;24.796;2022-08-01T14:10:49;1.45;;;1.15;;
10667;SDS011;5382;42.136;24.796;2022-08-01T14:13:17;1.00;;;1.00;;
10667;SDS011;5382;42.136;24.796;2022-08-01T14:15:44;1.77;;;1.40;;
10667;SDS011;5382;42.136;24.796;2022-08-01T14:18:10;1.48;;;1.38;;
10667;SDS011;5382;42.136;24.796;2022-08-01T14:20:38;1.38;;;1.20;;
10667;SDS011;5382;42.136;24.796;2022-08-01T14:23:07;1.42;;;1.23;;
10667;SDS011;5382;42.136;24.796;2022-08-01T14:25:34;1.77;;;1.38;;
10667;SDS011;5382;42.136;24.796;2022-08-01T14:28:01;4.80;;;1.30;;
10667;SDS011;5382;42.136;24.796;2022-08-01T14:30:28;1.88;;;1.30;;
10667;SDS011;5382;42.136;24.796;2022-08-01T14:32:55;1.80;;;1.30;;
10667;SDS011;5382;42.136;24.796;2022-08-01T14:35:22;2.95;;;1.83;;
10667;SDS011;5382;42.136;24.796;2022-08-01T14:37:49;1.80;;;1.50;;
10667;SDS011;5382;42.136;24.796;2022-08-01T14:40:18;1.92;;;1.30;;
10667;SDS011;5382;42.136;24.796;2022-08-01T14:42:45;1.48;;;1.20;;
10667;SDS011;5382;42.136;24.796;2022-08-01T14:45:12;1.80;;;1.30;;
10667;SDS011;5382;42.136;24.796;2022-08-01T14:47:41;2.50;;;1.17;;
10667;SDS011;5382;42.136;24.796;2022-08-01T14:50:09;1.30;;;1.17;;
10667;SDS011;5382;42.136;24.796;2022-08-01T14:52:38;1.20;;;1.10;;
10667;SDS011;5382;42.136;24.796;2022-08-01T14:55:06;1.60;;;1.50;;
10667;SDS011;5382;42.136;24.796;2022-08-01T14:57:36;2.08;;;1.55;;
10667;SDS011;5382;42.136;24.796;2022-08-01T15:00:03;1.52;;;1.40;;
10667;SDS011;5382;42.136;24.796;2022-08-01T15:02:32;3.38;;;1.55;;
10667;SDS011;5382;42.136;24.796;2022-08-01T15:04:59;4.50;;;1.20;;
10667;SDS011;5382;42.136;24.796;2022-08-01T15:07:26;1.40;;;1.30;;
10667;SDS011;5382;42.136;24.796;2022-08-01T15:09:53;1.80;;;1.52;;
10667;SDS011;5382;42.136;24.796;2022-08-01T15:12:20;3.67;;;1.20;;
10667;SDS011;5382;42.136;24.796;2022-08-01T15:14:48;4.45;;;1.60;;
10667;SDS011;5382;42.136;24.796;2022-08-01T15:17:15;1.85;;;1.42;;
10667;SDS011;5382;42.136;24.796;2022-08-01T15:19:43;2.67;;;1.42;;